Damon, Texas
Current Conditions -  °F | °C
As of 12:53 PM on Saturday 20 Dec 2014 (Local Time) from KLBX Reporting Station
Overcast Overcast  
Wind Chill: 53°   Ceiling: 1100
Heat Index: 53°   Visibility: 10mi
Dew Point: 51°   Wind: 13mph
Humidity: 93%   Direction: 20°NNE
Pressure: 30.14"   Gusts: NA
Location:  29.29°N, 95.74°W
Report Text: KLBX 201853Z AUTO 02011KT 10SM OVC011 12/11 A3014 RMK AO2 SLP207 T01170106
Loading
Personal Weather Stations






























Interactive Weather Map New forecast layout! Learn more

10-Day Weather Forecast

Advertisements
Track Severe Weather on mobile